Wednesday, February 20, 2019, 2:39 PM EST
Back to Local

KABE, Lehigh Valley International Airport

Location: Allentown, PA, United States Lat: 40.65
Local Time: 2:39 PM EST (19:39 GMT) Lon: -75.45
Time Zone: US/Eastern Elev: 393 ft

Show me the last for .
Show Decoded

2019-02-20 14:15 METAR KABE 201915Z 07005KT 3/4SM -SN FEW008 OVC014 M02/M06 A3041 RMK AO2 P0002
                 T10221056 $ =
2019-02-20 13:59 METAR KABE 201859Z 10005KT 3/4SM -SN FEW009 BKN016 OVC034 M02/M06 A3041 RMK AO2
                 P0000 T10221056 $ =
2019-02-20 13:51 METAR KABE 201851Z 09005KT 1 1/4SM -SN FEW010 BKN020 OVC034 M02/M06 A3042 RMK
                 AO2 SLP305 P0001 T10221056 $ =
2019-02-20 13:47 METAR KABE 201847Z 09006KT 1 3/4SM -SN SCT010 BKN024 OVC034 M02/M06 A3042 RMK
                 AO2 P0001 $ =
2019-02-20 12:51 METAR KABE 201751Z 10006KT 2SM -SN FEW008 BKN033 OVC042 M02/M06 A3045 RMK AO2
                 PRESFR SLP317 P0003 60011 T10221061 11011 21033 56036 $ =
2019-02-20 12:49 METAR KABE 201749Z 09006KT 2SM -SN FEW008 BKN035 OVC042 M02/M06 A3046 RMK AO2
                 PRESFR P0003 $ =
2019-02-20 12:41 METAR KABE 201741Z 09010KT 2SM -SN FEW010 BKN032 OVC050 M03/M07 A3047 RMK AO2
                 P0003 T10281067 $ =
2019-02-20 12:32 METAR KABE 201732Z 09008KT 1/2SM -SN SCT008 BKN020 OVC032 M03/M06 A3047 RMK AO2
                 SFC VIS 1 3/4 PRESFR P0003 T10281061 $ =
2019-02-20 12:25 METAR KABE 201725Z 11005KT 1/2SM -SN FEW008 BKN014 OVC032 M03/M06 A3048 RMK AO2
                 SFC VIS 1 1/2 P0003 T10281061 $ =
2019-02-20 12:15 METAR KABE 201715Z 10005KT 1/2SM -SN VV012 M03/M07 A3050 RMK AO2 SFC VIS 3/4
                 P0002 T10281067 $ =
2019-02-20 12:02 METAR KABE 201702Z 11006KT 1/2SM SN VV008 M03/M06 A3051 RMK AO2 P0001 T10281061
                 $ =
2019-02-20 11:51 METAR KABE 201651Z 11005KT 1/4SM +SN VV006 M03/M06 A3052 RMK AO2 TWR VIS 1/2
                 SNB1553 SLP340 P0008 T10281061 $ =
2019-02-20 11:28 METAR KABE 201628Z 13006KT 1/4SM +SN VV009 M03/M07 A3054 RMK AO2 TWR VIS 1/2
                 SNB1553 P0003 T10331067 $ =
2019-02-20 11:16 METAR KABE 201616Z 12005KT 1/2SM -SN VV012 M03/M07 A3053 RMK AO2 SFC VIS 3/4
                 SNB1553 PRESFR P0002 T10281072 $ =
2019-02-20 10:58 METAR KABE 201558Z 13008KT 1/2SM -SN VV019 M02/M08 A3056 =
2019-02-20 10:51 METAR KABE 201551Z 15007KT 1 1/2SM HZ OVC025 M02/M09 A3056 RMK AO2 SNB43SNEMM
                 SLP354 P0000 T10221094 =
2019-02-20 10:46 METAR KABE 201546Z 14006KT 1SM -SN OVC027 M02/M11 A3055 RMK AO2 SFC VIS 4 SNB43
                 P0000 =
2019-02-20 09:51 METAR KABE 201451Z 11003KT 10SM BKN050 OVC070 M01/M12 A3057 RMK AO2 SLP357
                 T10111117 53005 =
2019-02-20 08:51 METAR KABE 201351Z 09007KT 10SM OVC070 M02/M12 A3056 RMK AO2 SLP354 T10171117 =
2019-02-20 07:51 METAR KABE 201251Z 09007KT 10SM OVC100 M02/M11 A3056 RMK AO2 SLP353 T10221111 =
2019-02-20 06:51 METAR KABE 201151Z 05007KT 10SM CLR M02/M11 A3055 RMK AO2 SLP352 T10221111 11011
                 21028 55007 =
2019-02-20 05:51 METAR KABE 201051Z 08007KT 10SM CLR M02/M12 A3055 RMK AO2 SLP350 T10221117 =
2019-02-20 04:51 METAR KABE 200951Z 06005KT 10SM CLR M02/M11 A3056 RMK AO2 SLP355 T10221106 =
2019-02-20 03:51 METAR KABE 200851Z AUTO 05004KT 10SM CLR M03/M09 A3058 RMK AO2 SLP359 T10281094
                 58002 =
2019-02-20 02:51 METAR KABE 200751Z AUTO 06004KT 10SM CLR M02/M11 A3060 RMK AO2 SLP366 T10221106
                 =
2019-02-20 01:51 METAR KABE 200651Z 00000KT 10SM CLR M02/M12 A3059 RMK AO2 SLP364 T10171122 =
2019-02-20 00:51 METAR KABE 200551Z 00000KT 10SM CLR M02/M11 A3058 RMK AO2 SLP361 T10171111 10000
                 21028 55003 =
2019-02-19 23:51 METAR KABE 200451Z 04003KT 10SM CLR M02/M12 A3057 RMK AO2 SLP357 T10221117
                 400221050 =
2019-02-19 22:51 METAR KABE 200351Z 05004KT 10SM CLR M02/M11 A3058 RMK AO2 SLP359 T10221111 =
2019-02-19 21:51 METAR KABE 200251Z 00000KT 10SM CLR M02/M12 A3059 RMK AO2 SLP366 T10171117 53002
                 =
2019-02-19 20:51 METAR KABE 200151Z 36003KT 10SM CLR M02/M11 A3059 RMK AO2 SLP365 T10171111 =
2019-02-19 19:51 METAR KABE 200051Z 34004KT 10SM CLR M02/M11 A3059 RMK AO2 SLP364 T10171106 =
2019-02-19 18:51 METAR KABE 192351Z 27003KT 10SM CLR M01/M12 A3059 RMK AO2 SLP364 T10061122 10022
                 21011 53011 =
2019-02-19 17:51 METAR KABE 192251Z 00000KT 10SM CLR 00/M12 A3056 RMK AO2 SLP355 T00001117 =
2019-02-19 16:51 METAR KABE 192151Z AUTO 26004KT 10SM CLR 01/M13 A3054 RMK AO2 SLP345 T00111128 =
2019-02-19 15:51 METAR KABE 192051Z 30006KT 10SM CLR 02/M13 A3055 RMK AO2 SLP352 T00171133 56009
                 =
2019-02-19 14:51 METAR KABE 191951Z 29007KT 10SM CLR 02/M13 A3056 RMK AO2 SLP353 T00221128 =

Support USWX by starting your Amazon purchase here.